Skip Navigation Links Skip Navigation Links

Current Weather

Wabush Lake, Nfld.

For information only: do not use for flight planning or navigation.
Latest weather
Observation time Thursday, October 17, 2019 2:30 AM NDT
Local time Thursday, October 17, 2019 3:26 AM NDT
Flight conditions Visual Meteorological Conditions
Winds
Wind direction Southeast (140°)
Wind speed 3 mph
Visibility 9 mi.
Sky condition
Ceiling unlimited
Cloud layer scattered clouds 14,000 ft.
Temperature 30°F
Dewpoint 28°F
Altimeter 29.90 in.Hg
Derived measurements
Relative humidity 93%
Wind chill 27°F
Density altitude -1303 ft.
Sea-level pressure 29.98 in.Hg
Remarks
Fully automated report.
METAR CYWK 170500Z AUTO 14003KT 9SM SCT140 M01/M02 A2990 RMK SLP153

Settings

Location code

InnerDrive.Weather 4.0.6770.0 Release CLR 4.0.30319.42000
Copyright ©2018 Inner Drive Technology. All rights reserved. Portions Copyright ©1986-2018 David Braverman.

Find weather

Site navigation


Skip Navigation Links

Place info

Page info

PayPal - The safer, easier way to pay online!

Return home.

Copyright ©2019 Inner Drive Technology. Purveyors of fine, hand-crafted computer software. Page printed 2019-10-17T05:56:02 UTC.